sensor_id;sensor_type;location;lat;lon;timestamp;P1;durP1;ratioP1;P2;durP2;ratioP2
9465;SDS011;4771;48.726;9.006;2022-07-10T00:00:27;3.65;;;3.08;;
9465;SDS011;4771;48.726;9.006;2022-07-10T00:02:58;3.35;;;2.50;;
9465;SDS011;4771;48.726;9.006;2022-07-10T00:05:25;4.00;;;3.05;;
9465;SDS011;4771;48.726;9.006;2022-07-10T00:07:52;3.53;;;2.95;;
9465;SDS011;4771;48.726;9.006;2022-07-10T00:10:20;3.65;;;2.97;;
9465;SDS011;4771;48.726;9.006;2022-07-10T00:12:49;4.63;;;3.28;;
9465;SDS011;4771;48.726;9.006;2022-07-10T00:15:17;4.80;;;3.03;;
9465;SDS011;4771;48.726;9.006;2022-07-10T00:17:45;4.13;;;3.10;;
9465;SDS011;4771;48.726;9.006;2022-07-10T00:20:13;3.05;;;2.75;;
9465;SDS011;4771;48.726;9.006;2022-07-10T00:22:41;3.40;;;3.10;;
9465;SDS011;4771;48.726;9.006;2022-07-10T00:25:09;3.75;;;3.15;;
9465;SDS011;4771;48.726;9.006;2022-07-10T00:27:37;4.13;;;3.15;;
9465;SDS011;4771;48.726;9.006;2022-07-10T00:30:04;3.53;;;2.60;;
9465;SDS011;4771;48.726;9.006;2022-07-10T00:32:32;4.15;;;3.05;;
9465;SDS011;4771;48.726;9.006;2022-07-10T00:34:58;4.03;;;2.95;;
9465;SDS011;4771;48.726;9.006;2022-07-10T00:37:28;2.85;;;2.60;;
9465;SDS011;4771;48.726;9.006;2022-07-10T00:39:55;4.47;;;2.85;;
9465;SDS011;4771;48.726;9.006;2022-07-10T00:42:22;4.00;;;2.78;;
9465;SDS011;4771;48.726;9.006;2022-07-10T00:44:49;4.15;;;2.90;;
9465;SDS011;4771;48.726;9.006;2022-07-10T00:47:16;4.05;;;3.00;;
9465;SDS011;4771;48.726;9.006;2022-07-10T00:49:44;3.22;;;2.92;;
9465;SDS011;4771;48.726;9.006;2022-07-10T00:52:13;5.78;;;2.83;;
9465;SDS011;4771;48.726;9.006;2022-07-10T00:54:43;3.00;;;2.70;;
9465;SDS011;4771;48.726;9.006;2022-07-10T00:57:12;3.35;;;2.92;;
9465;SDS011;4771;48.726;9.006;2022-07-10T00:59:40;2.97;;;2.65;;
9465;SDS011;4771;48.726;9.006;2022-07-10T01:02:07;3.45;;;3.15;;
9465;SDS011;4771;48.726;9.006;2022-07-10T01:04:35;3.10;;;2.80;;
9465;SDS011;4771;48.726;9.006;2022-07-10T01:07:03;3.20;;;2.90;;
9465;SDS011;4771;48.726;9.006;2022-07-10T01:09:30;3.42;;;2.72;;
9465;SDS011;4771;48.726;9.006;2022-07-10T01:12:01;3.35;;;3.05;;
9465;SDS011;4771;48.726;9.006;2022-07-10T01:14:29;4.07;;;2.67;;
9465;SDS011;4771;48.726;9.006;2022-07-10T01:16:57;5.90;;;3.00;;
9465;SDS011;4771;48.726;9.006;2022-07-10T01:19:24;4.68;;;3.25;;
9465;SDS011;4771;48.726;9.006;2022-07-10T01:21:53;4.57;;;2.90;;
9465;SDS011;4771;48.726;9.006;2022-07-10T01:24:20;3.28;;;2.58;;
9465;SDS011;4771;48.726;9.006;2022-07-10T01:26:47;3.10;;;2.80;;
9465;SDS011;4771;48.726;9.006;2022-07-10T01:29:14;4.75;;;3.25;;
9465;SDS011;4771;48.726;9.006;2022-07-10T01:31:41;3.40;;;3.10;;
9465;SDS011;4771;48.726;9.006;2022-07-10T01:34:08;3.40;;;3.10;;
9465;SDS011;4771;48.726;9.006;2022-07-10T01:36:36;4.25;;;3.33;;
9465;SDS011;4771;48.726;9.006;2022-07-10T01:39:05;6.40;;;3.47;;
9465;SDS011;4771;48.726;9.006;2022-07-10T01:41:33;3.38;;;3.08;;
9465;SDS011;4771;48.726;9.006;2022-07-10T01:44:00;4.07;;;3.67;;
9465;SDS011;4771;48.726;9.006;2022-07-10T01:46:27;4.35;;;3.40;;
9465;SDS011;4771;48.726;9.006;2022-07-10T01:48:54;4.28;;;3.60;;
9465;SDS011;4771;48.726;9.006;2022-07-10T01:51:21;4.88;;;4.15;;
9465;SDS011;4771;48.726;9.006;2022-07-10T01:53:48;4.93;;;4.15;;
9465;SDS011;4771;48.726;9.006;2022-07-10T01:56:16;4.70;;;4.30;;
9465;SDS011;4771;48.726;9.006;2022-07-10T01:58:43;4.82;;;3.95;;
9465;SDS011;4771;48.726;9.006;2022-07-10T02:01:10;4.63;;;4.18;;
9465;SDS011;4771;48.726;9.006;2022-07-10T02:03:38;4.55;;;4.15;;
9465;SDS011;4771;48.726;9.006;2022-07-10T02:06:22;4.93;;;4.45;;
9465;SDS011;4771;48.726;9.006;2022-07-10T02:08:50;5.43;;;4.60;;
9465;SDS011;4771;48.726;9.006;2022-07-10T02:11:18;4.85;;;4.32;;
9465;SDS011;4771;48.726;9.006;2022-07-10T02:13:45;5.60;;;5.05;;
9465;SDS011;4771;48.726;9.006;2022-07-10T02:16:12;5.50;;;5.00;;
9465;SDS011;4771;48.726;9.006;2022-07-10T02:18:39;10.25;;;4.97;;
9465;SDS011;4771;48.726;9.006;2022-07-10T02:21:06;6.68;;;5.97;;
9465;SDS011;4771;48.726;9.006;2022-07-10T02:23:34;6.90;;;5.53;;
9465;SDS011;4771;48.726;9.006;2022-07-10T02:26:01;7.75;;;6.20;;
9465;SDS011;4771;48.726;9.006;2022-07-10T02:28:30;6.13;;;5.50;;
9465;SDS011;4771;48.726;9.006;2022-07-10T02:30:57;6.18;;;5.57;;
9465;SDS011;4771;48.726;9.006;2022-07-10T02:33:24;6.55;;;5.93;;
9465;SDS011;4771;48.726;9.006;2022-07-10T02:35:51;6.93;;;6.32;;
9465;SDS011;4771;48.726;9.006;2022-07-10T02:38:18;7.60;;;6.75;;
9465;SDS011;4771;48.726;9.006;2022-07-10T02:40:45;8.88;;;6.93;;
9465;SDS011;4771;48.726;9.006;2022-07-10T02:43:12;8.35;;;7.25;;
9465;SDS011;4771;48.726;9.006;2022-07-10T02:45:40;8.52;;;7.72;;
9465;SDS011;4771;48.726;9.006;2022-07-10T02:48:07;8.40;;;7.55;;
9465;SDS011;4771;48.726;9.006;2022-07-10T02:50:34;7.97;;;7.18;;
9465;SDS011;4771;48.726;9.006;2022-07-10T02:53:00;8.63;;;7.82;;
9465;SDS011;4771;48.726;9.006;2022-07-10T02:55:28;8.55;;;7.45;;
9465;SDS011;4771;48.726;9.006;2022-07-10T02:57:56;8.68;;;7.85;;
9465;SDS011;4771;48.726;9.006;2022-07-10T03:00:24;8.90;;;7.93;;
9465;SDS011;4771;48.726;9.006;2022-07-10T03:02:52;9.10;;;8.20;;
9465;SDS011;4771;48.726;9.006;2022-07-10T03:05:19;9.50;;;8.23;;
9465;SDS011;4771;48.726;9.006;2022-07-10T03:07:46;9.38;;;8.38;;
9465;SDS011;4771;48.726;9.006;2022-07-10T03:10:13;9.70;;;8.43;;
9465;SDS011;4771;48.726;9.006;2022-07-10T03:12:40;9.80;;;8.82;;
9465;SDS011;4771;48.726;9.006;2022-07-10T03:15:07;9.88;;;8.90;;
9465;SDS011;4771;48.726;9.006;2022-07-10T03:17:35;8.32;;;7.53;;
9465;SDS011;4771;48.726;9.006;2022-07-10T03:20:04;9.82;;;8.63;;
9465;SDS011;4771;48.726;9.006;2022-07-10T03:22:31;9.82;;;8.82;;
9465;SDS011;4771;48.726;9.006;2022-07-10T03:24:58;10.00;;;8.57;;
9465;SDS011;4771;48.726;9.006;2022-07-10T03:27:25;9.57;;;8.27;;
9465;SDS011;4771;48.726;9.006;2022-07-10T03:29:52;9.65;;;8.68;;
9465;SDS011;4771;48.726;9.006;2022-07-10T03:32:19;11.85;;;8.63;;
9465;SDS011;4771;48.726;9.006;2022-07-10T03:34:46;9.65;;;8.50;;
9465;SDS011;4771;48.726;9.006;2022-07-10T03:37:14;8.90;;;8.07;;
9465;SDS011;4771;48.726;9.006;2022-07-10T03:39:41;9.45;;;7.90;;
9465;SDS011;4771;48.726;9.006;2022-07-10T03:42:08;9.57;;;8.32;;
9465;SDS011;4771;48.726;9.006;2022-07-10T03:44:35;10.10;;;7.82;;
9465;SDS011;4771;48.726;9.006;2022-07-10T03:47:02;11.13;;;8.57;;
9465;SDS011;4771;48.726;9.006;2022-07-10T03:49:29;9.65;;;8.27;;
9465;SDS011;4771;48.726;9.006;2022-07-10T03:51:58;8.80;;;8.00;;
9465;SDS011;4771;48.726;9.006;2022-07-10T03:54:28;11.90;;;8.45;;
9465;SDS011;4771;48.726;9.006;2022-07-10T03:56:55;8.73;;;7.82;;
9465;SDS011;4771;48.726;9.006;2022-07-10T03:59:40;9.88;;;7.68;;
9465;SDS011;4771;48.726;9.006;2022-07-10T04:02:07;8.95;;;7.63;;
9465;SDS011;4771;48.726;9.006;2022-07-10T04:04:34;8.30;;;7.53;;
9465;SDS011;4771;48.726;9.006;2022-07-10T04:07:01;8.55;;;7.75;;
9465;SDS011;4771;48.726;9.006;2022-07-10T04:09:30;8.55;;;7.13;;
9465;SDS011;4771;48.726;9.006;2022-07-10T04:11:57;9.75;;;7.32;;
9465;SDS011;4771;48.726;9.006;2022-07-10T04:14:24;7.88;;;6.97;;
9465;SDS011;4771;48.726;9.006;2022-07-10T04:16:51;7.30;;;6.60;;
9465;SDS011;4771;48.726;9.006;2022-07-10T04:19:18;8.38;;;6.60;;
9465;SDS011;4771;48.726;9.006;2022-07-10T04:21:46;7.90;;;6.07;;
9465;SDS011;4771;48.726;9.006;2022-07-10T04:24:13;6.88;;;6.13;;
9465;SDS011;4771;48.726;9.006;2022-07-10T04:26:41;8.00;;;6.00;;
9465;SDS011;4771;48.726;9.006;2022-07-10T04:29:09;7.25;;;6.53;;
9465;SDS011;4771;48.726;9.006;2022-07-10T04:31:35;10.95;;;6.60;;
9465;SDS011;4771;48.726;9.006;2022-07-10T04:34:02;7.57;;;6.30;;
9465;SDS011;4771;48.726;9.006;2022-07-10T04:36:29;5.80;;;5.15;;
9465;SDS011;4771;48.726;9.006;2022-07-10T04:38:56;6.63;;;5.90;;
9465;SDS011;4771;48.726;9.006;2022-07-10T04:41:23;6.65;;;5.85;;
9465;SDS011;4771;48.726;9.006;2022-07-10T04:43:51;8.45;;;5.65;;
9465;SDS011;4771;48.726;9.006;2022-07-10T04:46:18;6.35;;;4.80;;
9465;SDS011;4771;48.726;9.006;2022-07-10T04:48:45;5.65;;;5.00;;
9465;SDS011;4771;48.726;9.006;2022-07-10T04:51:12;6.93;;;5.35;;
9465;SDS011;4771;48.726;9.006;2022-07-10T04:53:39;5.65;;;4.60;;
9465;SDS011;4771;48.726;9.006;2022-07-10T04:56:06;5.47;;;4.45;;
9465;SDS011;4771;48.726;9.006;2022-07-10T04:58:33;7.07;;;4.60;;
9465;SDS011;4771;48.726;9.006;2022-07-10T05:01:01;6.05;;;4.53;;
9465;SDS011;4771;48.726;9.006;2022-07-10T05:03:28;5.32;;;4.60;;
9465;SDS011;4771;48.726;9.006;2022-07-10T05:05:55;7.75;;;5.05;;
9465;SDS011;4771;48.726;9.006;2022-07-10T05:08:22;5.78;;;4.32;;
9465;SDS011;4771;48.726;9.006;2022-07-10T05:10:49;6.10;;;4.00;;
9465;SDS011;4771;48.726;9.006;2022-07-10T05:13:16;5.25;;;3.97;;
9465;SDS011;4771;48.726;9.006;2022-07-10T05:15:44;6.00;;;4.70;;
9465;SDS011;4771;48.726;9.006;2022-07-10T05:18:13;8.95;;;4.40;;
9465;SDS011;4771;48.726;9.006;2022-07-10T05:20:40;4.68;;;3.85;;
9465;SDS011;4771;48.726;9.006;2022-07-10T05:23:08;5.47;;;3.95;;
9465;SDS011;4771;48.726;9.006;2022-07-10T05:25:36;6.10;;;3.95;;
9465;SDS011;4771;48.726;9.006;2022-07-10T05:28:03;6.30;;;3.60;;
9465;SDS011;4771;48.726;9.006;2022-07-10T05:30:30;6.85;;;3.60;;
9465;SDS011;4771;48.726;9.006;2022-07-10T05:32:57;4.65;;;3.70;;
9465;SDS011;4771;48.726;9.006;2022-07-10T05:35:26;4.05;;;3.42;;
9465;SDS011;4771;48.726;9.006;2022-07-10T05:37:53;4.22;;;2.92;;
9465;SDS011;4771;48.726;9.006;2022-07-10T05:40:20;5.38;;;3.42;;
9465;SDS011;4771;48.726;9.006;2022-07-10T05:42:47;5.30;;;3.30;;
9465;SDS011;4771;48.726;9.006;2022-07-10T05:45:14;3.00;;;2.70;;
9465;SDS011;4771;48.726;9.006;2022-07-10T05:47:41;5.53;;;2.72;;
9465;SDS011;4771;48.726;9.006;2022-07-10T05:50:08;4.40;;;2.63;;
9465;SDS011;4771;48.726;9.006;2022-07-10T05:52:37;5.05;;;2.83;;
9465;SDS011;4771;48.726;9.006;2022-07-10T05:55:05;6.13;;;2.75;;
9465;SDS011;4771;48.726;9.006;2022-07-10T05:57:33;3.50;;;2.33;;
9465;SDS011;4771;48.726;9.006;2022-07-10T06:00:00;5.07;;;2.47;;
9465;SDS011;4771;48.726;9.006;2022-07-10T06:02:28;6.63;;;2.60;;
9465;SDS011;4771;48.726;9.006;2022-07-10T06:04:55;3.05;;;2.03;;
9465;SDS011;4771;48.726;9.006;2022-07-10T06:07:22;4.57;;;2.30;;
9465;SDS011;4771;48.726;9.006;2022-07-10T06:09:50;4.03;;;2.30;;
9465;SDS011;4771;48.726;9.006;2022-07-10T06:12:17;3.97;;;2.17;;
9465;SDS011;4771;48.726;9.006;2022-07-10T06:14:44;7.07;;;2.33;;
9465;SDS011;4771;48.726;9.006;2022-07-10T06:17:11;5.45;;;2.30;;
9465;SDS011;4771;48.726;9.006;2022-07-10T06:19:38;4.35;;;2.33;;
9465;SDS011;4771;48.726;9.006;2022-07-10T06:22:05;5.20;;;2.22;;
9465;SDS011;4771;48.726;9.006;2022-07-10T06:24:50;3.45;;;2.28;;
9465;SDS011;4771;48.726;9.006;2022-07-10T06:27:17;4.20;;;2.42;;
9465;SDS011;4771;48.726;9.006;2022-07-10T06:29:44;3.65;;;2.15;;
9465;SDS011;4771;48.726;9.006;2022-07-10T06:32:11;2.58;;;2.17;;
9465;SDS011;4771;48.726;9.006;2022-07-10T06:34:38;5.00;;;2.10;;
9465;SDS011;4771;48.726;9.006;2022-07-10T06:37:05;3.63;;;2.38;;
9465;SDS011;4771;48.726;9.006;2022-07-10T06:39:32;3.80;;;2.30;;
9465;SDS011;4771;48.726;9.006;2022-07-10T06:42:01;4.25;;;2.17;;
9465;SDS011;4771;48.726;9.006;2022-07-10T06:44:28;3.08;;;2.10;;
9465;SDS011;4771;48.726;9.006;2022-07-10T06:46:55;4.70;;;2.05;;
9465;SDS011;4771;48.726;9.006;2022-07-10T06:49:40;2.83;;;1.92;;
9465;SDS011;4771;48.726;9.006;2022-07-10T06:52:07;6.15;;;2.13;;
9465;SDS011;4771;48.726;9.006;2022-07-10T06:54:34;4.57;;;1.95;;
9465;SDS011;4771;48.726;9.006;2022-07-10T06:57:03;3.55;;;1.70;;
9465;SDS011;4771;48.726;9.006;2022-07-10T06:59:30;5.80;;;2.25;;
9465;SDS011;4771;48.726;9.006;2022-07-10T07:01:57;5.10;;;1.83;;
9465;SDS011;4771;48.726;9.006;2022-07-10T07:04:24;7.47;;;2.08;;
9465;SDS011;4771;48.726;9.006;2022-07-10T07:06:51;5.38;;;1.98;;
9465;SDS011;4771;48.726;9.006;2022-07-10T07:09:18;5.55;;;1.95;;
9465;SDS011;4771;48.726;9.006;2022-07-10T07:11:45;4.00;;;1.92;;
9465;SDS011;4771;48.726;9.006;2022-07-10T07:14:13;5.63;;;2.15;;
9465;SDS011;4771;48.726;9.006;2022-07-10T07:16:40;4.95;;;2.20;;
9465;SDS011;4771;48.726;9.006;2022-07-10T07:19:09;4.00;;;1.70;;
9465;SDS011;4771;48.726;9.006;2022-07-10T07:21:40;4.50;;;1.60;;
9465;SDS011;4771;48.726;9.006;2022-07-10T07:24:25;3.38;;;1.42;;
9465;SDS011;4771;48.726;9.006;2022-07-10T07:26:51;2.78;;;1.63;;
9465;SDS011;4771;48.726;9.006;2022-07-10T07:29:20;4.25;;;1.88;;
9465;SDS011;4771;48.726;9.006;2022-07-10T07:31:47;2.67;;;1.42;;
9465;SDS011;4771;48.726;9.006;2022-07-10T07:34:14;4.05;;;1.92;;
9465;SDS011;4771;48.726;9.006;2022-07-10T07:36:40;3.70;;;1.50;;
9465;SDS011;4771;48.726;9.006;2022-07-10T07:39:07;4.45;;;1.50;;
9465;SDS011;4771;48.726;9.006;2022-07-10T07:41:34;6.60;;;1.60;;
9465;SDS011;4771;48.726;9.006;2022-07-10T07:44:01;5.75;;;1.70;;
9465;SDS011;4771;48.726;9.006;2022-07-10T07:46:29;3.40;;;1.60;;
9465;SDS011;4771;48.726;9.006;2022-07-10T07:48:56;6.50;;;1.80;;
9465;SDS011;4771;48.726;9.006;2022-07-10T07:51:23;3.72;;;1.67;;
9465;SDS011;4771;48.726;9.006;2022-07-10T07:53:50;3.85;;;1.65;;
9465;SDS011;4771;48.726;9.006;2022-07-10T07:56:17;5.13;;;1.90;;
9465;SDS011;4771;48.726;9.006;2022-07-10T07:58:44;7.07;;;1.80;;
9465;SDS011;4771;48.726;9.006;2022-07-10T08:01:11;5.53;;;1.67;;
9465;SDS011;4771;48.726;9.006;2022-07-10T08:03:39;5.53;;;1.60;;
9465;SDS011;4771;48.726;9.006;2022-07-10T08:06:07;4.68;;;1.70;;
9465;SDS011;4771;48.726;9.006;2022-07-10T08:08:34;3.63;;;1.67;;
9465;SDS011;4771;48.726;9.006;2022-07-10T08:11:01;5.93;;;1.90;;
9465;SDS011;4771;48.726;9.006;2022-07-10T08:13:28;3.60;;;1.88;;
9465;SDS011;4771;48.726;9.006;2022-07-10T08:15:55;3.22;;;1.58;;
9465;SDS011;4771;48.726;9.006;2022-07-10T08:18:22;3.42;;;1.50;;
9465;SDS011;4771;48.726;9.006;2022-07-10T08:20:50;5.85;;;1.70;;
9465;SDS011;4771;48.726;9.006;2022-07-10T08:23:18;2.53;;;1.70;;
9465;SDS011;4771;48.726;9.006;2022-07-10T08:25:45;4.22;;;1.70;;
9465;SDS011;4771;48.726;9.006;2022-07-10T08:28:12;6.38;;;1.95;;
9465;SDS011;4771;48.726;9.006;2022-07-10T08:30:39;4.82;;;1.80;;
9465;SDS011;4771;48.726;9.006;2022-07-10T08:33:07;4.97;;;2.00;;
9465;SDS011;4771;48.726;9.006;2022-07-10T08:35:34;5.88;;;1.48;;
9465;SDS011;4771;48.726;9.006;2022-07-10T08:38:02;4.05;;;1.60;;
9465;SDS011;4771;48.726;9.006;2022-07-10T08:40:33;3.05;;;1.60;;
9465;SDS011;4771;48.726;9.006;2022-07-10T08:43:01;2.92;;;1.60;;
9465;SDS011;4771;48.726;9.006;2022-07-10T08:45:29;5.55;;;2.42;;
9465;SDS011;4771;48.726;9.006;2022-07-10T08:47:57;3.95;;;1.70;;
9465;SDS011;4771;48.726;9.006;2022-07-10T08:50:29;7.63;;;1.77;;
9465;SDS011;4771;48.726;9.006;2022-07-10T08:53:00;3.05;;;1.58;;
9465;SDS011;4771;48.726;9.006;2022-07-10T08:55:33;2.90;;;1.60;;
9465;SDS011;4771;48.726;9.006;2022-07-10T08:58:02;6.43;;;2.00;;
9465;SDS011;4771;48.726;9.006;2022-07-10T09:00:30;3.78;;;1.55;;
9465;SDS011;4771;48.726;9.006;2022-07-10T09:02:57;3.13;;;1.50;;
9465;SDS011;4771;48.726;9.006;2022-07-10T09:05:24;3.63;;;1.67;;
9465;SDS011;4771;48.726;9.006;2022-07-10T09:07:52;2.63;;;1.55;;
9465;SDS011;4771;48.726;9.006;2022-07-10T09:10:21;7.35;;;1.60;;
9465;SDS011;4771;48.726;9.006;2022-07-10T09:12:51;2.17;;;1.40;;
9465;SDS011;4771;48.726;9.006;2022-07-10T09:15:20;3.67;;;1.90;;
9465;SDS011;4771;48.726;9.006;2022-07-10T09:17:55;3.13;;;1.58;;
9465;SDS011;4771;48.726;9.006;2022-07-10T09:20:26;3.53;;;1.80;;
9465;SDS011;4771;48.726;9.006;2022-07-10T09:22:56;4.18;;;1.80;;
9465;SDS011;4771;48.726;9.006;2022-07-10T09:25:30;4.97;;;2.00;;
9465;SDS011;4771;48.726;9.006;2022-07-10T09:27:59;3.83;;;1.65;;
9465;SDS011;4771;48.726;9.006;2022-07-10T09:30:39;3.05;;;1.80;;
9465;SDS011;4771;48.726;9.006;2022-07-10T09:33:19;4.03;;;1.50;;
9465;SDS011;4771;48.726;9.006;2022-07-10T09:35:55;3.83;;;1.58;;
9465;SDS011;4771;48.726;9.006;2022-07-10T09:38:48;2.03;;;1.35;;
9465;SDS011;4771;48.726;9.006;2022-07-10T09:41:24;3.42;;;1.70;;
9465;SDS011;4771;48.726;9.006;2022-07-10T09:43:52;4.10;;;1.80;;
9465;SDS011;4771;48.726;9.006;2022-07-10T09:46:21;2.83;;;1.60;;
9465;SDS011;4771;48.726;9.006;2022-07-10T09:49:00;3.22;;;1.35;;
9465;SDS011;4771;48.726;9.006;2022-07-10T09:51:29;4.45;;;1.88;;
9465;SDS011;4771;48.726;9.006;2022-07-10T09:53:59;3.97;;;1.50;;
9465;SDS011;4771;48.726;9.006;2022-07-10T09:56:29;3.72;;;1.50;;
9465;SDS011;4771;48.726;9.006;2022-07-10T09:58:59;2.85;;;1.67;;
9465;SDS011;4771;48.726;9.006;2022-07-10T10:01:27;5.07;;;2.05;;
9465;SDS011;4771;48.726;9.006;2022-07-10T10:03:55;2.97;;;1.70;;
9465;SDS011;4771;48.726;9.006;2022-07-10T10:06:27;7.30;;;2.22;;
9465;SDS011;4771;48.726;9.006;2022-07-10T10:08:59;3.25;;;1.73;;
9465;SDS011;4771;48.726;9.006;2022-07-10T10:11:35;3.63;;;1.90;;
9465;SDS011;4771;48.726;9.006;2022-07-10T10:14:03;3.78;;;1.70;;
9465;SDS011;4771;48.726;9.006;2022-07-10T10:16:33;6.43;;;2.00;;
9465;SDS011;4771;48.726;9.006;2022-07-10T10:19:02;4.03;;;1.83;;
9465;SDS011;4771;48.726;9.006;2022-07-10T10:21:46;2.60;;;1.73;;
9465;SDS011;4771;48.726;9.006;2022-07-10T10:24:14;3.78;;;1.80;;
9465;SDS011;4771;48.726;9.006;2022-07-10T10:26:43;4.20;;;1.80;;
9465;SDS011;4771;48.726;9.006;2022-07-10T10:29:11;6.15;;;1.75;;
9465;SDS011;4771;48.726;9.006;2022-07-10T10:31:38;2.80;;;1.45;;
9465;SDS011;4771;48.726;9.006;2022-07-10T10:34:06;3.72;;;1.60;;
9465;SDS011;4771;48.726;9.006;2022-07-10T10:36:46;4.15;;;1.95;;
9465;SDS011;4771;48.726;9.006;2022-07-10T10:39:14;3.80;;;1.80;;
9465;SDS011;4771;48.726;9.006;2022-07-10T10:41:46;2.80;;;1.67;;
9465;SDS011;4771;48.726;9.006;2022-07-10T10:44:27;3.75;;;1.55;;
9465;SDS011;4771;48.726;9.006;2022-07-10T10:47:06;4.70;;;1.95;;
9465;SDS011;4771;48.726;9.006;2022-07-10T10:49:47;2.55;;;1.70;;
9465;SDS011;4771;48.726;9.006;2022-07-10T10:52:16;2.75;;;1.60;;
9465;SDS011;4771;48.726;9.006;2022-07-10T10:55:00;4.75;;;1.63;;
9465;SDS011;4771;48.726;9.006;2022-07-10T10:57:41;3.15;;;1.73;;
9465;SDS011;4771;48.726;9.006;2022-07-10T11:00:32;3.22;;;1.75;;
9465;SDS011;4771;48.726;9.006;2022-07-10T11:05:50;2.70;;;1.60;;
9465;SDS011;4771;48.726;9.006;2022-07-10T11:08:36;5.32;;;2.75;;
9465;SDS011;4771;48.726;9.006;2022-07-10T11:14:06;1.83;;;1.40;;
9465;SDS011;4771;48.726;9.006;2022-07-10T11:16:34;2.03;;;1.30;;
9465;SDS011;4771;48.726;9.006;2022-07-10T11:19:01;3.45;;;1.33;;
9465;SDS011;4771;48.726;9.006;2022-07-10T11:21:29;3.67;;;1.40;;
9465;SDS011;4771;48.726;9.006;2022-07-10T11:24:06;2.08;;;1.60;;
9465;SDS011;4771;48.726;9.006;2022-07-10T11:26:40;3.78;;;1.30;;
9465;SDS011;4771;48.726;9.006;2022-07-10T11:29:26;3.28;;;1.40;;
9465;SDS011;4771;48.726;9.006;2022-07-10T11:31:53;1.58;;;1.08;;
9465;SDS011;4771;48.726;9.006;2022-07-10T11:34:21;3.17;;;1.38;;
9465;SDS011;4771;48.726;9.006;2022-07-10T11:36:48;1.65;;;1.13;;
9465;SDS011;4771;48.726;9.006;2022-07-10T11:39:15;2.83;;;1.40;;
9465;SDS011;4771;48.726;9.006;2022-07-10T11:41:42;3.15;;;1.30;;
9465;SDS011;4771;48.726;9.006;2022-07-10T11:44:13;4.53;;;1.70;;
9465;SDS011;4771;48.726;9.006;2022-07-10T11:46:43;2.10;;;1.23;;
9465;SDS011;4771;48.726;9.006;2022-07-10T11:49:14;2.40;;;1.25;;
9465;SDS011;4771;48.726;9.006;2022-07-10T11:51:42;4.72;;;1.35;;
9465;SDS011;4771;48.726;9.006;2022-07-10T11:54:10;3.10;;;1.40;;
9465;SDS011;4771;48.726;9.006;2022-07-10T11:56:39;2.63;;;1.35;;
9465;SDS011;4771;48.726;9.006;2022-07-10T11:59:08;2.45;;;1.15;;
9465;SDS011;4771;48.726;9.006;2022-07-10T12:01:40;3.45;;;1.33;;
9465;SDS011;4771;48.726;9.006;2022-07-10T12:04:09;1.67;;;1.00;;
9465;SDS011;4771;48.726;9.006;2022-07-10T12:06:38;2.42;;;1.30;;
9465;SDS011;4771;48.726;9.006;2022-07-10T12:09:07;3.70;;;1.55;;
9465;SDS011;4771;48.726;9.006;2022-07-10T12:11:35;2.70;;;1.27;;
9465;SDS011;4771;48.726;9.006;2022-07-10T12:14:09;2.55;;;1.30;;
9465;SDS011;4771;48.726;9.006;2022-07-10T12:16:39;2.90;;;1.20;;
9465;SDS011;4771;48.726;9.006;2022-07-10T12:19:08;2.20;;;1.30;;
9465;SDS011;4771;48.726;9.006;2022-07-10T12:21:38;2.10;;;1.30;;
9465;SDS011;4771;48.726;9.006;2022-07-10T12:24:05;2.08;;;1.20;;
9465;SDS011;4771;48.726;9.006;2022-07-10T12:26:33;3.58;;;1.40;;
9465;SDS011;4771;48.726;9.006;2022-07-10T12:29:01;3.83;;;1.42;;
9465;SDS011;4771;48.726;9.006;2022-07-10T12:31:30;3.45;;;1.15;;
9465;SDS011;4771;48.726;9.006;2022-07-10T12:33:59;3.95;;;1.35;;
9465;SDS011;4771;48.726;9.006;2022-07-10T12:36:42;1.42;;;1.00;;
9465;SDS011;4771;48.726;9.006;2022-07-10T12:39:10;1.55;;;1.00;;
9465;SDS011;4771;48.726;9.006;2022-07-10T12:44:36;2.38;;;0.95;;
9465;SDS011;4771;48.726;9.006;2022-07-10T12:47:05;3.67;;;1.00;;
9465;SDS011;4771;48.726;9.006;2022-07-10T12:49:50;2.47;;;1.05;;
9465;SDS011;4771;48.726;9.006;2022-07-10T12:52:20;2.35;;;1.10;;
9465;SDS011;4771;48.726;9.006;2022-07-10T12:55:04;2.30;;;0.98;;
9465;SDS011;4771;48.726;9.006;2022-07-10T12:57:44;2.83;;;1.35;;
9465;SDS011;4771;48.726;9.006;2022-07-10T13:00:13;4.85;;;1.15;;
9465;SDS011;4771;48.726;9.006;2022-07-10T13:02:40;1.63;;;1.17;;
9465;SDS011;4771;48.726;9.006;2022-07-10T13:05:08;4.00;;;1.00;;
9465;SDS011;4771;48.726;9.006;2022-07-10T13:07:36;2.58;;;1.10;;
9465;SDS011;4771;48.726;9.006;2022-07-10T13:10:04;1.95;;;1.10;;
9465;SDS011;4771;48.726;9.006;2022-07-10T13:12:33;1.33;;;0.98;;
9465;SDS011;4771;48.726;9.006;2022-07-10T13:15:01;3.15;;;1.20;;
9465;SDS011;4771;48.726;9.006;2022-07-10T13:17:28;1.95;;;1.02;;
9465;SDS011;4771;48.726;9.006;2022-07-10T13:19:55;2.88;;;1.20;;
9465;SDS011;4771;48.726;9.006;2022-07-10T13:22:23;3.88;;;1.30;;
9465;SDS011;4771;48.726;9.006;2022-07-10T13:24:51;2.80;;;1.00;;
9465;SDS011;4771;48.726;9.006;2022-07-10T13:27:18;4.72;;;1.30;;
9465;SDS011;4771;48.726;9.006;2022-07-10T13:29:46;2.70;;;1.02;;
9465;SDS011;4771;48.726;9.006;2022-07-10T13:32:13;1.98;;;0.93;;
9465;SDS011;4771;48.726;9.006;2022-07-10T13:34:40;1.73;;;1.05;;
9465;SDS011;4771;48.726;9.006;2022-07-10T13:37:07;2.55;;;0.82;;
9465;SDS011;4771;48.726;9.006;2022-07-10T13:39:36;3.00;;;1.10;;
9465;SDS011;4771;48.726;9.006;2022-07-10T13:42:05;2.60;;;0.93;;
9465;SDS011;4771;48.726;9.006;2022-07-10T13:44:32;2.53;;;1.00;;
9465;SDS011;4771;48.726;9.006;2022-07-10T13:46:59;3.35;;;1.30;;
9465;SDS011;4771;48.726;9.006;2022-07-10T13:49:26;4.13;;;1.20;;
9465;SDS011;4771;48.726;9.006;2022-07-10T13:51:53;1.83;;;0.93;;
9465;SDS011;4771;48.726;9.006;2022-07-10T13:54:20;2.65;;;1.02;;
9465;SDS011;4771;48.726;9.006;2022-07-10T13:56:47;5.22;;;1.20;;
9465;SDS011;4771;48.726;9.006;2022-07-10T13:59:15;3.88;;;1.20;;
9465;SDS011;4771;48.726;9.006;2022-07-10T14:01:42;3.40;;;0.90;;
9465;SDS011;4771;48.726;9.006;2022-07-10T14:04:09;2.28;;;1.00;;
9465;SDS011;4771;48.726;9.006;2022-07-10T14:06:36;3.30;;;1.30;;
9465;SDS011;4771;48.726;9.006;2022-07-10T14:09:03;1.25;;;1.00;;
9465;SDS011;4771;48.726;9.006;2022-07-10T14:11:31;1.67;;;0.93;;
9465;SDS011;4771;48.726;9.006;2022-07-10T14:13:58;2.53;;;0.93;;
9465;SDS011;4771;48.726;9.006;2022-07-10T14:16:28;2.53;;;1.20;;
9465;SDS011;4771;48.726;9.006;2022-07-10T14:18:55;2.25;;;1.10;;
9465;SDS011;4771;48.726;9.006;2022-07-10T14:21:22;2.35;;;1.08;;
9465;SDS011;4771;48.726;9.006;2022-07-10T14:23:52;3.85;;;1.42;;
9465;SDS011;4771;48.726;9.006;2022-07-10T14:26:21;2.45;;;1.00;;
9465;SDS011;4771;48.726;9.006;2022-07-10T14:28:48;2.55;;;0.88;;
9465;SDS011;4771;48.726;9.006;2022-07-10T14:31:16;3.67;;;1.20;;
9465;SDS011;4771;48.726;9.006;2022-07-10T14:33:44;3.60;;;1.02;;
9465;SDS011;4771;48.726;9.006;2022-07-10T14:36:11;4.50;;;1.27;;
9465;SDS011;4771;48.726;9.006;2022-07-10T14:38:38;2.10;;;0.90;;
9465;SDS011;4771;48.726;9.006;2022-07-10T14:41:05;2.67;;;1.20;;
9465;SDS011;4771;48.726;9.006;2022-07-10T14:43:32;2.25;;;1.00;;
9465;SDS011;4771;48.726;9.006;2022-07-10T14:46:00;3.03;;;1.10;;
9465;SDS011;4771;48.726;9.006;2022-07-10T14:48:28;4.85;;;1.35;;
9465;SDS011;4771;48.726;9.006;2022-07-10T14:50:57;1.67;;;0.90;;
9465;SDS011;4771;48.726;9.006;2022-07-10T14:53:24;1.50;;;0.85;;
9465;SDS011;4771;48.726;9.006;2022-07-10T14:55:51;1.92;;;1.05;;
9465;SDS011;4771;48.726;9.006;2022-07-10T14:58:18;2.35;;;1.10;;
9465;SDS011;4771;48.726;9.006;2022-07-10T15:00:48;3.60;;;1.30;;
9465;SDS011;4771;48.726;9.006;2022-07-10T15:03:15;2.40;;;1.15;;
9465;SDS011;4771;48.726;9.006;2022-07-10T15:05:42;3.00;;;0.80;;
9465;SDS011;4771;48.726;9.006;2022-07-10T15:08:10;2.25;;;1.10;;
9465;SDS011;4771;48.726;9.006;2022-07-10T15:10:37;3.25;;;1.00;;
9465;SDS011;4771;48.726;9.006;2022-07-10T15:13:06;2.28;;;0.95;;
9465;SDS011;4771;48.726;9.006;2022-07-10T15:15:33;2.38;;;1.08;;
9465;SDS011;4771;48.726;9.006;2022-07-10T15:18:00;1.65;;;0.80;;
9465;SDS011;4771;48.726;9.006;2022-07-10T15:20:27;1.70;;;1.00;;
9465;SDS011;4771;48.726;9.006;2022-07-10T15:22:54;2.30;;;1.00;;
9465;SDS011;4771;48.726;9.006;2022-07-10T15:25:22;4.03;;;1.10;;
9465;SDS011;4771;48.726;9.006;2022-07-10T15:27:50;3.17;;;1.00;;
9465;SDS011;4771;48.726;9.006;2022-07-10T15:30:17;3.53;;;1.20;;
9465;SDS011;4771;48.726;9.006;2022-07-10T15:32:44;3.22;;;1.10;;